createdAt,value
2022-12-08T00:00:46.069Z,92258.50
2022-12-08T00:03:30.682Z,92259.53
2022-12-08T00:06:41.692Z,92260.47
2022-12-08T00:09:27.199Z,92254.59
2022-12-08T00:12:11.956Z,92258.75
2022-12-08T00:14:55.098Z,92252.06
2022-12-08T00:17:37.952Z,92246.88
2022-12-08T00:20:22.217Z,92254.47
2022-12-08T00:23:05.100Z,92248.50
2022-12-08T00:25:47.994Z,92241.72
2022-12-08T00:28:30.872Z,92244.94
2022-12-08T00:31:14.050Z,92239.88
2022-12-08T00:33:56.991Z,92236.44
2022-12-08T00:36:41.343Z,92234.81
2022-12-08T00:39:24.311Z,92234.94
2022-12-08T00:42:16.196Z,92238.38
2022-12-08T00:44:59.084Z,92239.41
2022-12-08T00:47:41.983Z,92237.69
2022-12-08T00:50:24.837Z,92242.88
2022-12-08T00:53:09.041Z,92239.41
2022-12-08T00:55:51.953Z,92236.06
2022-12-08T00:58:35.831Z,92236.75
2022-12-08T01:01:19.001Z,92246.75
2022-12-08T01:04:04.465Z,92240.00
2022-12-08T01:06:48.464Z,92239.88
2022-12-08T01:09:32.739Z,92238.97
2022-12-08T01:12:15.666Z,92242.31
2022-12-08T01:15:02.240Z,92241.50
2022-12-08T01:17:45.688Z,92239.78
2022-12-08T01:20:28.751Z,92245.63
2022-12-08T01:23:11.596Z,92244.84
2022-12-08T01:25:55.827Z,92248.28
2022-12-08T01:28:39.543Z,92244.94
2022-12-08T01:31:23.880Z,92238.16
2022-12-08T01:34:06.730Z,92234.03
2022-12-08T01:36:49.612Z,92236.44
2022-12-08T01:39:32.480Z,92243.31
2022-12-08T01:42:23.332Z,92231.81
2022-12-08T01:45:14.984Z,92235.38
2022-12-08T01:48:01.334Z,92236.28
2022-12-08T01:50:44.657Z,92230.31
2022-12-08T01:53:32.748Z,92228.81
2022-12-08T01:56:20.450Z,92222.25
2022-12-08T01:59:04.918Z,92228.09
2022-12-08T02:01:47.641Z,92223.03
2022-12-08T02:04:30.526Z,92226.38
2022-12-08T02:07:15.718Z,92218.19
2022-12-08T02:09:58.931Z,92213.84
2022-12-08T02:12:41.876Z,92210.59
2022-12-08T02:15:33.747Z,92212.44
2022-12-08T02:18:38.824Z,92201.16
2022-12-08T02:21:27.361Z,92206.31
2022-12-08T02:24:20.318Z,92198.88
2022-12-08T02:27:36.894Z,92192.06
2022-12-08T02:30:27.353Z,92189.84
2022-12-08T02:33:57.961Z,92191.31
2022-12-08T02:36:53.004Z,92183.56
2022-12-08T02:39:38.849Z,92181.34
2022-12-08T02:42:28.576Z,92182.84
2022-12-08T02:45:15.742Z,92183.47
2022-12-08T02:47:59.747Z,92183.84
2022-12-08T02:50:43.452Z,92181.91
2022-12-08T02:53:31.601Z,92176.50
2022-12-08T02:56:30.750Z,92178.03
2022-12-08T02:59:37.136Z,92175.97
2022-12-08T03:02:36.897Z,92168.06
2022-12-08T03:05:32.892Z,92168.50
2022-12-08T03:08:21.210Z,92168.94
2022-12-08T03:11:11.713Z,92162.38
2022-12-08T03:13:59.260Z,92168.47
2022-12-08T03:16:46.403Z,92164.25
2022-12-08T03:19:33.681Z,92158.22
2022-12-08T03:22:20.983Z,92153.00
2022-12-08T03:25:04.028Z,92147.56
2022-12-08T03:27:48.393Z,92153.16
2022-12-08T03:30:34.582Z,92149.53
2022-12-08T03:33:23.653Z,92143.50
2022-12-08T03:36:10.658Z,92153.31
2022-12-08T03:38:55.085Z,92146.25
2022-12-08T03:41:37.948Z,92148.06
2022-12-08T03:44:22.130Z,92144.06
2022-12-08T03:47:05.107Z,92143.47
2022-12-08T03:49:47.968Z,92140.81
2022-12-08T03:52:30.893Z,92134.97
2022-12-08T03:55:13.746Z,92142.44
2022-12-08T03:57:56.717Z,92140.72
2022-12-08T04:00:40.931Z,92138.19
2022-12-08T04:03:23.856Z,92135.06
2022-12-08T04:06:07.715Z,92127.69
2022-12-08T04:08:51.629Z,92133.97
2022-12-08T04:11:34.491Z,92130.66
2022-12-08T04:14:17.607Z,92135.69
2022-12-08T04:17:01.830Z,92133.88
2022-12-08T04:19:44.689Z,92132.84
2022-12-08T04:22:27.538Z,92127.69
2022-12-08T04:25:10.893Z,92122.44
2022-12-08T04:27:54.018Z,92130.53
2022-12-08T04:30:37.019Z,92130.19
2022-12-08T04:33:21.238Z,92122.75
2022-12-08T04:36:04.984Z,92117.47
2022-12-08T04:38:47.850Z,92112.00
2022-12-08T04:41:30.693Z,92110.19
2022-12-08T04:44:13.846Z,92118.53
2022-12-08T04:46:56.743Z,92110.97
2022-12-08T04:49:40.972Z,92105.00
2022-12-08T04:52:24.244Z,92113.41
2022-12-08T04:55:07.772Z,92115.50
2022-12-08T04:57:50.660Z,92118.72
2022-12-08T05:00:33.512Z,92109.44
2022-12-08T05:03:17.066Z,92106.22
2022-12-08T05:06:02.346Z,92105.50
2022-12-08T05:08:45.357Z,92109.25
2022-12-08T05:11:28.208Z,92105.25
2022-12-08T05:14:13.277Z,92113.50
2022-12-08T05:16:56.096Z,92116.13
2022-12-08T05:19:38.948Z,92107.97
2022-12-08T05:22:23.152Z,92109.78
2022-12-08T05:25:06.525Z,92100.69
2022-12-08T05:27:49.403Z,92103.22
2022-12-08T05:30:32.258Z,92100.69
2022-12-08T05:33:15.174Z,92099.09
2022-12-08T05:35:58.086Z,92100.81
2022-12-08T05:38:42.369Z,92090.59
2022-12-08T05:41:25.516Z,92092.31
2022-12-08T05:44:08.546Z,92097.38
2022-12-08T05:46:51.529Z,92091.53
2022-12-08T05:49:34.596Z,92091.41
2022-12-08T05:52:17.933Z,92088.06
2022-12-08T05:55:02.175Z,92086.47
2022-12-08T05:57:45.032Z,92084.84
2022-12-08T06:00:27.890Z,92091.72
2022-12-08T06:03:12.630Z,92096.06
2022-12-08T06:05:55.528Z,92096.88
2022-12-08T06:08:38.406Z,92094.47
2022-12-08T06:11:24.233Z,92091.94
2022-12-08T06:14:11.612Z,92096.16
2022-12-08T06:16:54.572Z,92093.56
2022-12-08T06:19:37.684Z,92090.00
2022-12-08T06:22:20.601Z,92088.28
2022-12-08T06:25:07.174Z,92090.13
2022-12-08T06:27:52.726Z,92099.63
2022-12-08T06:30:35.584Z,92093.88
2022-12-08T06:33:18.449Z,92105.78
2022-12-08T06:36:01.327Z,92096.16
2022-12-08T06:38:44.750Z,92091.63
2022-12-08T06:41:27.589Z,92092.53
2022-12-08T06:44:11.835Z,92090.00
2022-12-08T06:46:54.714Z,92087.38
2022-12-08T06:49:37.589Z,92097.97
2022-12-08T06:52:20.447Z,92100.88
2022-12-08T06:55:03.421Z,92101.25
2022-12-08T06:57:46.303Z,92102.66
2022-12-08T07:00:30.550Z,92106.09
2022-12-08T07:03:14.703Z,92109.53
2022-12-08T07:06:03.563Z,92106.53
2022-12-08T07:08:47.271Z,92109.06
2022-12-08T07:11:30.143Z,92109.06
2022-12-08T07:14:13.682Z,92109.84
2022-12-08T07:16:57.931Z,92114.69
2022-12-08T07:19:40.840Z,92110.44
2022-12-08T07:22:23.710Z,92107.53
2022-12-08T07:25:07.400Z,92106.75
2022-12-08T07:27:51.386Z,92102.41
2022-12-08T07:30:34.317Z,92101.47
2022-12-08T07:33:18.540Z,92098.72
2022-12-08T07:36:03.407Z,92101.03
2022-12-08T07:38:46.273Z,92097.41
2022-12-08T07:41:29.189Z,92094.75
2022-12-08T07:44:12.422Z,92093.03
2022-12-08T07:46:55.296Z,92081.81
2022-12-08T07:49:40.787Z,92096.06
2022-12-08T07:52:23.663Z,92093.44
2022-12-08T07:55:07.521Z,92097.44
2022-12-08T07:57:51.318Z,92097.16
2022-12-08T08:00:34.396Z,92095.28
2022-12-08T08:03:17.342Z,92093.16
2022-12-08T08:06:05.913Z,92098.47
2022-12-08T08:08:48.783Z,92099.66
2022-12-08T08:11:31.687Z,92104.72
2022-12-08T08:14:14.489Z,92103.91
2022-12-08T08:16:57.482Z,92107.13
2022-12-08T08:19:40.419Z,92112.19
2022-12-08T08:22:25.926Z,92110.84
2022-12-08T08:25:09.697Z,92118.19
2022-12-08T08:27:52.687Z,92112.91
2022-12-08T08:30:35.554Z,92114.53
2022-12-08T08:33:18.414Z,92116.72
2022-12-08T08:36:01.333Z,92116.50
2022-12-08T08:38:45.551Z,92112.28
2022-12-08T08:41:28.411Z,92107.81
2022-12-08T08:44:11.286Z,92103.91
2022-12-08T08:46:54.221Z,92111.38
2022-12-08T08:49:37.192Z,92117.03
2022-12-08T08:52:20.091Z,92113.38
2022-12-08T08:55:04.862Z,92105.78
2022-12-08T08:57:47.730Z,92108.78
2022-12-08T09:00:30.571Z,92115.13
2022-12-08T09:03:13.909Z,92121.22
2022-12-08T09:05:57.522Z,92117.44
2022-12-08T09:08:40.502Z,92112.97
2022-12-08T09:11:25.136Z,92119.63
2022-12-08T09:14:08.078Z,92103.41
2022-12-08T09:16:51.028Z,92114.13
2022-12-08T09:19:34.071Z,92110.78
2022-12-08T09:22:17.043Z,92108.16
2022-12-08T09:24:59.914Z,92106.31
2022-12-08T09:27:44.204Z,92110.22
2022-12-08T09:30:27.053Z,92104.13
2022-12-08T09:33:09.927Z,92104.69
2022-12-08T09:35:52.801Z,92093.31
2022-12-08T09:38:35.737Z,92090.31
2022-12-08T09:41:24.957Z,92084.91
2022-12-08T09:44:24.355Z,92085.25
2022-12-08T09:47:16.732Z,92080.53
2022-12-08T09:50:07.457Z,92073.38
2022-12-08T09:52:59.119Z,92072.09
2022-12-08T09:55:46.871Z,92075.78
2022-12-08T09:58:46.105Z,92066.34
2022-12-08T10:01:33.975Z,92070.38
2022-12-08T10:04:23.854Z,92067.59
2022-12-08T10:07:15.303Z,92060.00
2022-12-08T10:10:04.560Z,92056.78
2022-12-08T10:12:52.996Z,92061.50
2022-12-08T10:15:47.740Z,92063.00
2022-12-08T10:18:35.116Z,92060.69
2022-12-08T10:21:22.181Z,92057.38
2022-12-08T10:24:12.859Z,92058.06
2022-12-08T10:26:57.867Z,92054.84
2022-12-08T10:29:41.184Z,92053.22
2022-12-08T10:32:25.420Z,92043.09
2022-12-08T10:35:12.087Z,92038.72
2022-12-08T10:37:59.643Z,92036.03
2022-12-08T10:40:45.889Z,92035.00
2022-12-08T10:43:29.204Z,92031.16
2022-12-08T10:46:14.464Z,92033.59
2022-12-08T10:49:12.397Z,92024.03
2022-12-08T10:51:56.619Z,92017.66
2022-12-08T10:54:43.951Z,92017.19
2022-12-08T10:57:26.799Z,92022.25
2022-12-08T11:00:14.712Z,92013.50
2022-12-08T11:03:00.779Z,92012.31
2022-12-08T11:05:43.740Z,92004.47
2022-12-08T11:08:29.617Z,92011.97
2022-12-08T11:11:12.915Z,92012.91
2022-12-08T11:13:55.809Z,92010.34
2022-12-08T11:16:43.338Z,92004.47
2022-12-08T11:19:27.875Z,92009.16
2022-12-08T11:22:23.104Z,92008.25
2022-12-08T11:25:13.406Z,91996.25
2022-12-08T11:27:59.583Z,91993.47
2022-12-08T11:30:48.440Z,91993.22
2022-12-08T11:33:31.600Z,91991.25
2022-12-08T11:36:16.711Z,91991.81
2022-12-08T11:39:02.262Z,91991.56
2022-12-08T11:41:47.619Z,91986.47
2022-12-08T11:44:38.231Z,91983.03
2022-12-08T11:47:25.512Z,91977.72
2022-12-08T11:50:21.128Z,91976.41
2022-12-08T11:53:09.997Z,91971.88
2022-12-08T11:55:58.263Z,91963.22
2022-12-08T11:58:46.075Z,91960.44
2022-12-08T12:01:29.155Z,91965.25
2022-12-08T12:04:21.516Z,91959.94
2022-12-08T12:07:27.195Z,91958.91
2022-12-08T12:10:39.673Z,91966.22
2022-12-08T12:13:46.901Z,91961.84
2022-12-08T12:16:56.536Z,91956.66
2022-12-08T12:19:41.225Z,91950.75
2022-12-08T12:22:25.144Z,91950.75
2022-12-08T12:25:19.235Z,91948.22
2022-12-08T12:28:07.160Z,91953.28
2022-12-08T12:30:58.972Z,91948.22
2022-12-08T12:33:44.245Z,91946.75
2022-12-08T12:36:27.410Z,91940.84
2022-12-08T12:39:14.538Z,91932.44
2022-12-08T12:41:59.630Z,91922.56
2022-12-08T12:44:43.513Z,91925.09
2022-12-08T12:47:55.606Z,91936.31
2022-12-08T12:50:43.711Z,91931.63
2022-12-08T12:53:49.679Z,91935.88
2022-12-08T12:56:50.546Z,91926.53
2022-12-08T12:59:51.568Z,91930.78
2022-12-08T13:02:40.520Z,91929.19
2022-12-08T13:05:27.246Z,91933.56
2022-12-08T13:08:23.977Z,91918.59
2022-12-08T13:11:09.786Z,91922.09
2022-12-08T13:13:57.839Z,91923.81
2022-12-08T13:16:41.068Z,91919.81
2022-12-08T13:19:24.053Z,91915.66
2022-12-08T13:22:40.256Z,91918.31
2022-12-08T13:25:51.126Z,91921.91
2022-12-08T13:28:33.976Z,91916.16
2022-12-08T13:31:37.187Z,91918.94
2022-12-08T13:34:35.613Z,91917.59
2022-12-08T13:37:26.302Z,91914.50
2022-12-08T13:40:15.368Z,91916.34
2022-12-08T13:43:10.715Z,91910.63
2022-12-08T13:56:24.861Z,91912.81
2022-12-08T13:58:19.467Z,91911.88
2022-12-08T14:01:07.632Z,91920.19
2022-12-08T14:04:28.472Z,91922.47
2022-12-08T14:06:59.302Z,91929.16
2022-12-08T14:09:43.337Z,91927.69
2022-12-08T14:12:28.119Z,91923.66
2022-12-08T14:15:16.674Z,91919.50
2022-12-08T14:17:59.885Z,91918.84
2022-12-08T14:21:12.555Z,91914.56
2022-12-08T14:23:45.919Z,91920.69
2022-12-08T14:26:34.427Z,91916.66
2022-12-08T14:29:33.892Z,91920.13
2022-12-08T14:32:23.413Z,91916.78
2022-12-08T14:35:19.714Z,91914.41
2022-12-08T14:38:05.091Z,91913.44
2022-12-08T14:40:49.124Z,91907.13
2022-12-08T14:43:32.614Z,91908.13
2022-12-08T14:46:22.934Z,91905.22
2022-12-08T14:49:28.509Z,91905.06
2022-12-08T14:52:12.810Z,91900.41
2022-12-08T14:54:56.585Z,91900.69
2022-12-08T14:57:39.625Z,91895.41
2022-12-08T15:00:23.817Z,91896.81
2022-12-08T15:03:25.246Z,91902.31
2022-12-08T15:06:28.879Z,91894.75
2022-12-08T15:09:19.252Z,91896.13
2022-12-08T15:12:03.600Z,91895.94
2022-12-08T15:14:57.283Z,91893.03
2022-12-08T15:17:44.287Z,91889.16
2022-12-08T15:20:35.135Z,91888.69
2022-12-08T15:23:27.376Z,91893.19
2022-12-08T15:26:11.280Z,91891.66
2022-12-08T15:28:54.592Z,91892.59
2022-12-08T15:31:37.571Z,91887.78
2022-12-08T15:34:21.113Z,91884.78
2022-12-08T15:37:05.262Z,91886.97
2022-12-08T15:39:49.951Z,91891.47
2022-12-08T15:42:32.821Z,91888.25
2022-12-08T15:45:17.596Z,91890.16
2022-12-08T15:48:00.529Z,91892.81
2022-12-08T15:50:43.369Z,91890.50
2022-12-08T15:53:26.431Z,91896.25
2022-12-08T15:56:27.742Z,91882.72
2022-12-08T15:59:15.957Z,91885.94
2022-12-08T16:01:58.925Z,91882.47
2022-12-08T16:07:45.431Z,91887.19
2022-12-08T16:10:45.487Z,91882.72
2022-12-08T16:13:57.405Z,91887.19
2022-12-08T16:16:43.497Z,91892.81
2022-12-08T16:19:26.649Z,91887.75
2022-12-08T16:22:51.723Z,91889.59
2022-12-08T16:25:21.024Z,91890.63
2022-12-08T16:28:29.298Z,91892.34
2022-12-08T16:31:14.398Z,91896.47
2022-12-08T16:33:58.735Z,91890.63
2022-12-08T16:36:41.708Z,91894.19
2022-12-08T16:39:24.603Z,91893.25
2022-12-08T16:42:24.920Z,91889.81
2022-12-08T16:45:11.247Z,91894.56
2022-12-08T16:47:57.401Z,91899.63
2022-12-08T16:50:45.764Z,91884.31
2022-12-08T16:53:28.627Z,91899.50
2022-12-08T16:56:17.345Z,91901.09
2022-12-08T16:59:00.310Z,91900.06
2022-12-08T17:01:43.229Z,91895.81
2022-12-08T17:04:32.001Z,91897.44
2022-12-08T17:07:15.201Z,91899.13
2022-12-08T17:09:59.264Z,91893.28
2022-12-08T17:12:42.289Z,91898.44
2022-12-08T17:15:26.614Z,91887.63
2022-12-08T17:18:09.489Z,91886.28
2022-12-08T17:20:53.736Z,91882.13
2022-12-08T17:23:36.803Z,91890.84
2022-12-08T17:26:19.663Z,91885.09
2022-12-08T17:29:03.342Z,91885.34
2022-12-08T17:31:46.261Z,91869.72
2022-12-08T17:34:29.498Z,91870.63
2022-12-08T17:37:13.713Z,91873.84
2022-12-08T17:39:56.589Z,91874.44
2022-12-08T17:42:39.595Z,91878.66
2022-12-08T17:45:22.485Z,91880.63
2022-12-08T17:48:05.566Z,91888.31
2022-12-08T17:50:48.731Z,91882.91
2022-12-08T17:53:37.205Z,91875.78
2022-12-08T17:56:22.361Z,91878.31
2022-12-08T17:59:05.289Z,91878.44
2022-12-08T18:01:48.224Z,91883.00
2022-12-08T18:04:31.588Z,91876.34
2022-12-08T18:07:14.424Z,91877.25
2022-12-08T18:09:58.717Z,91887.78
2022-12-08T18:12:41.630Z,91877.69
2022-12-08T18:15:24.492Z,91881.03
2022-12-08T18:18:07.460Z,91875.16
2022-12-08T18:20:50.457Z,91878.94
2022-12-08T18:23:33.342Z,91882.28
2022-12-08T18:26:17.749Z,91877.13
2022-12-08T18:29:01.289Z,91872.19
2022-12-08T18:31:44.214Z,91876.19
2022-12-08T18:34:27.129Z,91872.53
2022-12-08T18:37:09.945Z,91865.75
2022-12-08T18:39:52.922Z,91860.69
2022-12-08T18:42:37.762Z,91859.09
2022-12-08T18:45:22.644Z,91850.81
2022-12-08T18:48:06.721Z,91852.78
2022-12-08T18:50:49.550Z,91858.88
2022-12-08T18:53:32.420Z,91854.81
2022-12-08T18:56:26.081Z,91845.97
2022-12-08T18:59:13.510Z,91837.81
2022-12-08T19:01:57.166Z,91844.47
2022-12-08T19:04:42.160Z,91848.84
2022-12-08T19:07:25.009Z,91842.31
2022-12-08T19:10:09.228Z,91836.44
2022-12-08T19:12:52.377Z,91838.16
2022-12-08T19:15:36.711Z,91835.72
2022-12-08T19:18:19.588Z,91836.78
2022-12-08T19:21:02.494Z,91845.03
2022-12-08T19:23:45.361Z,91845.84
2022-12-08T19:26:29.600Z,91846.38
2022-12-08T19:29:13.030Z,91847.28
2022-12-08T19:31:57.454Z,91850.63
2022-12-08T19:34:40.125Z,91854.88
2022-12-08T19:37:23.068Z,91865.66
2022-12-08T19:40:24.794Z,91857.31
2022-12-08T19:43:48.434Z,91856.38
2022-12-08T19:46:34.742Z,91859.69
2022-12-08T19:49:23.000Z,91861.31
2022-12-08T19:52:06.529Z,91856.25
2022-12-08T19:54:49.417Z,91857.31
2022-12-08T19:57:32.272Z,91851.56
2022-12-08T20:00:15.893Z,91859.81
2022-12-08T20:02:59.798Z,91860.53
2022-12-08T20:05:45.078Z,91853.88
2022-12-08T20:08:28.621Z,91856.59
2022-12-08T20:11:11.649Z,91839.84
2022-12-08T20:13:54.607Z,91843.16
2022-12-08T20:16:37.789Z,91842.25
2022-12-08T20:19:20.690Z,91838.81
2022-12-08T20:22:04.962Z,91828.84
2022-12-08T20:24:57.208Z,91829.75
2022-12-08T20:27:42.730Z,91820.91
2022-12-08T20:30:25.666Z,91822.50
2022-12-08T20:33:08.636Z,91820.09
2022-12-08T20:36:01.108Z,91829.59
2022-12-08T20:38:45.355Z,91839.13
2022-12-08T20:41:28.234Z,91838.31
2022-12-08T20:44:11.493Z,91846.78
2022-12-08T20:46:54.458Z,91851.81
2022-12-08T20:49:37.559Z,91855.97
2022-12-08T20:52:20.437Z,91858.41
2022-12-08T20:55:04.991Z,91854.97
2022-12-08T20:57:48.298Z,91857.16
2022-12-08T21:00:31.314Z,91851.97
2022-12-08T21:03:15.373Z,91849.38
2022-12-08T21:05:58.546Z,91855.22
2022-12-08T21:08:41.838Z,91854.28
2022-12-08T21:11:26.212Z,91849.25
2022-12-08T21:14:09.136Z,91852.59
2022-12-08T21:16:54.488Z,91857.63
2022-12-08T21:19:37.748Z,91856.81
2022-12-08T21:22:21.127Z,91858.44
2022-12-08T21:25:04.159Z,91857.72
2022-12-08T21:27:48.675Z,91858.44
2022-12-08T21:30:31.607Z,91854.19
2022-12-08T21:33:14.577Z,91851.75
2022-12-08T21:36:03.191Z,91851.69
2022-12-08T21:38:47.970Z,91849.94
2022-12-08T21:41:48.675Z,91849.94
2022-12-08T21:44:35.305Z,91855.69
2022-12-08T21:47:18.331Z,91867.41
2022-12-08T21:50:01.316Z,91857.41
2022-12-08T21:52:46.561Z,91857.63
2022-12-08T21:55:29.627Z,91856.94
2022-12-08T21:58:12.588Z,91859.34
2022-12-08T22:00:56.911Z,91862.69
2022-12-08T22:03:41.152Z,91854.41
2022-12-08T22:06:24.237Z,91848.53
2022-12-08T22:09:07.284Z,91850.50
2022-12-08T22:11:50.522Z,91852.81
2022-12-08T22:14:33.580Z,91849.94
2022-12-08T22:17:18.767Z,91851.56
2022-12-08T22:20:01.906Z,91846.63
2022-12-08T22:22:45.995Z,91845.69
2022-12-08T22:25:29.144Z,91841.47
2022-12-08T22:28:13.729Z,91837.19
2022-12-08T22:30:56.751Z,91827.22
2022-12-08T22:33:42.612Z,91816.34
2022-12-08T22:36:28.009Z,91823.09
2022-12-08T22:39:12.682Z,91818.38
2022-12-08T22:41:55.761Z,91826.50
2022-12-08T22:44:38.753Z,91822.56
2022-12-08T22:47:21.761Z,91820.28
2022-12-08T22:50:07.969Z,91817.75
2022-12-08T22:52:51.144Z,91814.31
2022-12-08T22:55:34.385Z,91808.34
2022-12-08T22:58:17.453Z,91807.56
2022-12-08T23:01:00.351Z,91802.59
2022-12-08T23:03:43.326Z,91808.56
2022-12-08T23:06:31.940Z,91791.25
2022-12-08T23:09:15.189Z,91802.47
2022-12-08T23:11:58.244Z,91810.25
2022-12-08T23:14:41.108Z,91807.84
2022-12-08T23:17:24.090Z,91802.31
2022-12-08T23:20:08.666Z,91810.69
2022-12-08T23:22:53.079Z,91806.56
2022-12-08T23:25:36.073Z,91797.50
2022-12-08T23:28:18.956Z,91803.66
2022-12-08T23:31:01.841Z,91803.09
2022-12-08T23:33:44.834Z,91798.03
2022-12-08T23:36:27.737Z,91801.34
2022-12-08T23:39:12.831Z,91788.16
2022-12-08T23:41:55.979Z,91794.13
2022-12-08T23:44:39.087Z,91794.44
2022-12-08T23:47:22.323Z,91786.97
2022-12-08T23:50:07.146Z,91790.53
2022-12-08T23:52:50.536Z,91795.56
2022-12-08T23:55:34.810Z,91796.81
2022-12-08T23:58:17.809Z,91796.19
